sensor_id;sensor_type;location;lat;lon;timestamp;P1;durP1;ratioP1;P2;durP2;ratioP2
18304;SDS011;9278;52.156;21.048;2022-07-25T00:01:18;7.78;;;6.00;;
18304;SDS011;9278;52.156;21.048;2022-07-25T00:03:48;10.25;;;6.22;;
18304;SDS011;9278;52.156;21.048;2022-07-25T00:06:18;7.60;;;5.82;;
18304;SDS011;9278;52.156;21.048;2022-07-25T00:08:46;7.95;;;5.57;;
18304;SDS011;9278;52.156;21.048;2022-07-25T00:11:14;7.72;;;5.40;;
18304;SDS011;9278;52.156;21.048;2022-07-25T00:13:42;7.65;;;5.80;;
18304;SDS011;9278;52.156;21.048;2022-07-25T00:16:11;10.15;;;5.93;;
18304;SDS011;9278;52.156;21.048;2022-07-25T00:18:39;8.85;;;5.50;;
18304;SDS011;9278;52.156;21.048;2022-07-25T00:21:07;10.38;;;5.80;;
18304;SDS011;9278;52.156;21.048;2022-07-25T00:23:37;7.15;;;5.40;;
18304;SDS011;9278;52.156;21.048;2022-07-25T00:26:05;8.15;;;5.70;;
18304;SDS011;9278;52.156;21.048;2022-07-25T00:28:33;9.90;;;5.72;;
18304;SDS011;9278;52.156;21.048;2022-07-25T00:31:01;10.50;;;5.35;;
18304;SDS011;9278;52.156;21.048;2022-07-25T00:33:29;8.38;;;5.72;;
18304;SDS011;9278;52.156;21.048;2022-07-25T00:35:57;8.20;;;5.90;;
18304;SDS011;9278;52.156;21.048;2022-07-25T00:38:26;8.20;;;5.40;;
18304;SDS011;9278;52.156;21.048;2022-07-25T00:40:56;13.60;;;5.88;;
18304;SDS011;9278;52.156;21.048;2022-07-25T00:43:24;7.32;;;5.55;;
18304;SDS011;9278;52.156;21.048;2022-07-25T00:45:52;7.72;;;5.57;;
18304;SDS011;9278;52.156;21.048;2022-07-25T00:48:21;9.07;;;6.57;;
18304;SDS011;9278;52.156;21.048;2022-07-25T00:50:49;7.53;;;5.97;;
18304;SDS011;9278;52.156;21.048;2022-07-25T00:53:17;7.40;;;6.00;;
18304;SDS011;9278;52.156;21.048;2022-07-25T00:55:46;9.23;;;6.18;;
18304;SDS011;9278;52.156;21.048;2022-07-25T00:58:16;11.65;;;6.60;;
18304;SDS011;9278;52.156;21.048;2022-07-25T01:00:44;13.30;;;6.82;;
18304;SDS011;9278;52.156;21.048;2022-07-25T01:03:13;10.40;;;6.80;;
18304;SDS011;9278;52.156;21.048;2022-07-25T01:05:41;9.43;;;6.57;;
18304;SDS011;9278;52.156;21.048;2022-07-25T01:08:09;10.05;;;6.82;;
18304;SDS011;9278;52.156;21.048;2022-07-25T01:10:39;9.55;;;6.53;;
18304;SDS011;9278;52.156;21.048;2022-07-25T01:13:07;10.75;;;6.90;;
18304;SDS011;9278;52.156;21.048;2022-07-25T01:15:36;10.05;;;7.05;;
18304;SDS011;9278;52.156;21.048;2022-07-25T01:18:04;10.38;;;6.70;;
18304;SDS011;9278;52.156;21.048;2022-07-25T01:20:34;12.02;;;7.10;;
18304;SDS011;9278;52.156;21.048;2022-07-25T01:23:02;11.38;;;7.22;;
18304;SDS011;9278;52.156;21.048;2022-07-25T01:25:30;11.00;;;7.22;;
18304;SDS011;9278;52.156;21.048;2022-07-25T01:27:59;12.27;;;7.13;;
18304;SDS011;9278;52.156;21.048;2022-07-25T01:30:27;9.95;;;7.15;;
18304;SDS011;9278;52.156;21.048;2022-07-25T01:32:55;8.85;;;7.22;;
18304;SDS011;9278;52.156;21.048;2022-07-25T01:35:23;10.82;;;8.00;;
18304;SDS011;9278;52.156;21.048;2022-07-25T01:37:53;12.95;;;6.90;;
18304;SDS011;9278;52.156;21.048;2022-07-25T01:40:21;13.48;;;7.35;;
18304;SDS011;9278;52.156;21.048;2022-07-25T01:42:49;15.02;;;7.18;;
18304;SDS011;9278;52.156;21.048;2022-07-25T01:45:17;9.05;;;7.00;;
18304;SDS011;9278;52.156;21.048;2022-07-25T01:47:45;12.48;;;7.60;;
18304;SDS011;9278;52.156;21.048;2022-07-25T01:50:13;14.10;;;7.90;;
18304;SDS011;9278;52.156;21.048;2022-07-25T01:52:41;10.48;;;7.60;;
18304;SDS011;9278;52.156;21.048;2022-07-25T01:55:11;13.27;;;7.32;;
18304;SDS011;9278;52.156;21.048;2022-07-25T01:57:40;12.88;;;7.68;;
18304;SDS011;9278;52.156;21.048;2022-07-25T02:00:15;11.60;;;7.97;;
18304;SDS011;9278;52.156;21.048;2022-07-25T02:02:44;12.65;;;7.70;;
18304;SDS011;9278;52.156;21.048;2022-07-25T02:05:12;11.55;;;8.00;;
18304;SDS011;9278;52.156;21.048;2022-07-25T02:07:41;12.75;;;8.20;;
18304;SDS011;9278;52.156;21.048;2022-07-25T02:10:09;11.00;;;8.10;;
18304;SDS011;9278;52.156;21.048;2022-07-25T02:12:38;9.98;;;7.78;;
18304;SDS011;9278;52.156;21.048;2022-07-25T02:15:07;12.13;;;8.20;;
18304;SDS011;9278;52.156;21.048;2022-07-25T02:17:36;13.27;;;7.63;;
18304;SDS011;9278;52.156;21.048;2022-07-25T02:20:05;10.93;;;7.95;;
18304;SDS011;9278;52.156;21.048;2022-07-25T02:22:33;10.10;;;7.82;;
18304;SDS011;9278;52.156;21.048;2022-07-25T02:25:01;14.30;;;7.95;;
18304;SDS011;9278;52.156;21.048;2022-07-25T02:27:29;10.88;;;7.90;;
18304;SDS011;9278;52.156;21.048;2022-07-25T02:29:59;12.02;;;8.45;;
18304;SDS011;9278;52.156;21.048;2022-07-25T02:32:27;17.50;;;8.32;;
18304;SDS011;9278;52.156;21.048;2022-07-25T02:34:55;10.93;;;7.90;;
18304;SDS011;9278;52.156;21.048;2022-07-25T02:37:24;11.68;;;9.25;;
18304;SDS011;9278;52.156;21.048;2022-07-25T02:39:52;12.32;;;9.10;;
18304;SDS011;9278;52.156;21.048;2022-07-25T02:42:20;14.00;;;8.82;;
18304;SDS011;9278;52.156;21.048;2022-07-25T02:44:48;12.60;;;9.02;;
18304;SDS011;9278;52.156;21.048;2022-07-25T02:47:18;10.68;;;8.38;;
18304;SDS011;9278;52.156;21.048;2022-07-25T02:49:46;12.02;;;8.95;;
18304;SDS011;9278;52.156;21.048;2022-07-25T02:52:14;11.98;;;9.00;;
18304;SDS011;9278;52.156;21.048;2022-07-25T02:54:42;15.73;;;9.35;;
18304;SDS011;9278;52.156;21.048;2022-07-25T02:57:10;14.43;;;9.70;;
18304;SDS011;9278;52.156;21.048;2022-07-25T02:59:38;12.93;;;9.30;;
18304;SDS011;9278;52.156;21.048;2022-07-25T03:02:06;15.60;;;9.93;;
18304;SDS011;9278;52.156;21.048;2022-07-25T03:04:36;12.10;;;9.38;;
18304;SDS011;9278;52.156;21.048;2022-07-25T03:07:04;14.52;;;9.98;;
18304;SDS011;9278;52.156;21.048;2022-07-25T03:09:32;14.05;;;9.52;;
18304;SDS011;9278;52.156;21.048;2022-07-25T03:12:00;13.95;;;9.88;;
18304;SDS011;9278;52.156;21.048;2022-07-25T03:14:28;14.18;;;9.35;;
18304;SDS011;9278;52.156;21.048;2022-07-25T03:16:56;15.73;;;10.27;;
18304;SDS011;9278;52.156;21.048;2022-07-25T03:19:25;16.05;;;9.63;;
18304;SDS011;9278;52.156;21.048;2022-07-25T03:21:54;16.15;;;10.20;;
18304;SDS011;9278;52.156;21.048;2022-07-25T03:24:22;14.40;;;10.27;;
18304;SDS011;9278;52.156;21.048;2022-07-25T03:26:51;13.55;;;10.02;;
18304;SDS011;9278;52.156;21.048;2022-07-25T03:29:20;13.30;;;10.23;;
18304;SDS011;9278;52.156;21.048;2022-07-25T03:31:48;16.33;;;9.68;;
18304;SDS011;9278;52.156;21.048;2022-07-25T03:34:16;16.65;;;9.98;;
18304;SDS011;9278;52.156;21.048;2022-07-25T03:36:44;13.45;;;10.18;;
18304;SDS011;9278;52.156;21.048;2022-07-25T03:39:14;12.52;;;9.73;;
18304;SDS011;9278;52.156;21.048;2022-07-25T03:41:42;17.60;;;9.50;;
18304;SDS011;9278;52.156;21.048;2022-07-25T03:44:10;13.10;;;10.13;;
18304;SDS011;9278;52.156;21.048;2022-07-25T03:46:39;16.52;;;10.48;;
18304;SDS011;9278;52.156;21.048;2022-07-25T03:49:07;15.27;;;10.02;;
18304;SDS011;9278;52.156;21.048;2022-07-25T03:51:35;13.27;;;9.55;;
18304;SDS011;9278;52.156;21.048;2022-07-25T03:54:03;14.18;;;10.05;;
18304;SDS011;9278;52.156;21.048;2022-07-25T03:56:36;12.50;;;9.02;;
18304;SDS011;9278;52.156;21.048;2022-07-25T03:59:10;14.98;;;10.10;;
18304;SDS011;9278;52.156;21.048;2022-07-25T04:01:39;14.60;;;9.30;;
18304;SDS011;9278;52.156;21.048;2022-07-25T04:04:08;14.27;;;10.20;;
18304;SDS011;9278;52.156;21.048;2022-07-25T04:06:37;14.05;;;9.40;;
18304;SDS011;9278;52.156;21.048;2022-07-25T04:09:06;15.07;;;9.60;;
18304;SDS011;9278;52.156;21.048;2022-07-25T04:11:36;14.02;;;9.98;;
18304;SDS011;9278;52.156;21.048;2022-07-25T04:14:05;15.30;;;9.98;;
18304;SDS011;9278;52.156;21.048;2022-07-25T04:16:33;15.43;;;11.55;;
18304;SDS011;9278;52.156;21.048;2022-07-25T04:19:02;21.83;;;11.85;;
18304;SDS011;9278;52.156;21.048;2022-07-25T04:21:31;23.33;;;13.60;;
18304;SDS011;9278;52.156;21.048;2022-07-25T04:24:00;39.42;;;21.60;;
18304;SDS011;9278;52.156;21.048;2022-07-25T04:26:29;15.98;;;10.82;;
18304;SDS011;9278;52.156;21.048;2022-07-25T04:28:58;14.60;;;8.85;;
18304;SDS011;9278;52.156;21.048;2022-07-25T04:31:29;17.08;;;9.48;;
18304;SDS011;9278;52.156;21.048;2022-07-25T04:33:57;19.17;;;11.00;;
18304;SDS011;9278;52.156;21.048;2022-07-25T04:36:25;26.05;;;14.63;;
18304;SDS011;9278;52.156;21.048;2022-07-25T04:38:53;13.45;;;8.55;;
18304;SDS011;9278;52.156;21.048;2022-07-25T04:41:21;16.98;;;9.45;;
18304;SDS011;9278;52.156;21.048;2022-07-25T04:43:49;11.30;;;8.07;;
18304;SDS011;9278;52.156;21.048;2022-07-25T04:46:19;12.57;;;7.43;;
18304;SDS011;9278;52.156;21.048;2022-07-25T04:48:49;10.90;;;7.30;;
18304;SDS011;9278;52.156;21.048;2022-07-25T04:51:18;11.82;;;6.75;;
18304;SDS011;9278;52.156;21.048;2022-07-25T04:53:46;10.27;;;5.75;;
18304;SDS011;9278;52.156;21.048;2022-07-25T04:56:14;10.75;;;5.95;;
18304;SDS011;9278;52.156;21.048;2022-07-25T04:58:42;10.48;;;5.85;;
18304;SDS011;9278;52.156;21.048;2022-07-25T05:01:10;9.05;;;5.47;;
18304;SDS011;9278;52.156;21.048;2022-07-25T05:03:40;8.00;;;5.30;;
18304;SDS011;9278;52.156;21.048;2022-07-25T05:06:16;6.45;;;5.03;;
18304;SDS011;9278;52.156;21.048;2022-07-25T05:08:44;8.25;;;4.60;;
18304;SDS011;9278;52.156;21.048;2022-07-25T05:11:12;7.10;;;4.68;;
18304;SDS011;9278;52.156;21.048;2022-07-25T05:13:40;6.55;;;4.85;;
18304;SDS011;9278;52.156;21.048;2022-07-25T05:16:08;8.73;;;5.25;;
18304;SDS011;9278;52.156;21.048;2022-07-25T05:18:36;4.97;;;4.25;;
18304;SDS011;9278;52.156;21.048;2022-07-25T05:21:08;5.95;;;4.32;;
18304;SDS011;9278;52.156;21.048;2022-07-25T05:23:36;5.00;;;4.45;;
18304;SDS011;9278;52.156;21.048;2022-07-25T05:26:05;6.43;;;4.13;;
18304;SDS011;9278;52.156;21.048;2022-07-25T05:28:33;7.10;;;4.28;;
18304;SDS011;9278;52.156;21.048;2022-07-25T05:31:01;5.88;;;3.90;;
18304;SDS011;9278;52.156;21.048;2022-07-25T05:33:29;10.52;;;4.57;;
18304;SDS011;9278;52.156;21.048;2022-07-25T05:35:57;15.88;;;4.35;;
18304;SDS011;9278;52.156;21.048;2022-07-25T05:38:28;8.32;;;4.25;;
18304;SDS011;9278;52.156;21.048;2022-07-25T05:40:56;7.10;;;4.28;;
18304;SDS011;9278;52.156;21.048;2022-07-25T05:43:24;9.52;;;4.57;;
18304;SDS011;9278;52.156;21.048;2022-07-25T05:45:52;4.97;;;4.05;;
18304;SDS011;9278;52.156;21.048;2022-07-25T05:48:26;7.63;;;4.25;;
18304;SDS011;9278;52.156;21.048;2022-07-25T05:50:54;8.02;;;4.28;;
18304;SDS011;9278;52.156;21.048;2022-07-25T05:53:23;6.60;;;3.92;;
18304;SDS011;9278;52.156;21.048;2022-07-25T05:55:52;5.82;;;4.07;;
18304;SDS011;9278;52.156;21.048;2022-07-25T05:58:20;6.07;;;3.83;;
18304;SDS011;9278;52.156;21.048;2022-07-25T06:00:55;4.50;;;3.53;;
18304;SDS011;9278;52.156;21.048;2022-07-25T06:03:23;4.65;;;3.60;;
18304;SDS011;9278;52.156;21.048;2022-07-25T06:05:53;4.85;;;3.35;;
18304;SDS011;9278;52.156;21.048;2022-07-25T06:08:22;5.18;;;3.42;;
18304;SDS011;9278;52.156;21.048;2022-07-25T06:10:50;6.30;;;3.70;;
18304;SDS011;9278;52.156;21.048;2022-07-25T06:13:19;5.93;;;3.70;;
18304;SDS011;9278;52.156;21.048;2022-07-25T06:15:49;6.57;;;3.90;;
18304;SDS011;9278;52.156;21.048;2022-07-25T06:18:17;6.70;;;4.32;;
18304;SDS011;9278;52.156;21.048;2022-07-25T06:20:45;7.65;;;3.85;;
18304;SDS011;9278;52.156;21.048;2022-07-25T06:23:14;7.00;;;4.10;;
18304;SDS011;9278;52.156;21.048;2022-07-25T06:25:42;5.68;;;4.20;;
18304;SDS011;9278;52.156;21.048;2022-07-25T06:28:15;5.45;;;3.92;;
18304;SDS011;9278;52.156;21.048;2022-07-25T06:30:45;4.43;;;3.65;;
18304;SDS011;9278;52.156;21.048;2022-07-25T06:33:14;13.13;;;3.67;;
18304;SDS011;9278;52.156;21.048;2022-07-25T06:35:42;7.22;;;3.50;;
18304;SDS011;9278;52.156;21.048;2022-07-25T06:38:10;6.82;;;4.07;;
18304;SDS011;9278;52.156;21.048;2022-07-25T06:40:38;5.15;;;3.47;;
18304;SDS011;9278;52.156;21.048;2022-07-25T06:43:06;7.38;;;3.60;;
18304;SDS011;9278;52.156;21.048;2022-07-25T06:45:34;6.07;;;3.58;;
18304;SDS011;9278;52.156;21.048;2022-07-25T06:48:04;6.35;;;3.65;;
18304;SDS011;9278;52.156;21.048;2022-07-25T06:50:32;4.97;;;3.47;;
18304;SDS011;9278;52.156;21.048;2022-07-25T06:53:00;5.88;;;3.58;;
18304;SDS011;9278;52.156;21.048;2022-07-25T06:55:28;5.85;;;3.53;;
18304;SDS011;9278;52.156;21.048;2022-07-25T06:57:57;5.57;;;3.30;;
18304;SDS011;9278;52.156;21.048;2022-07-25T07:00:25;5.68;;;3.40;;
18304;SDS011;9278;52.156;21.048;2022-07-25T07:02:54;7.03;;;3.35;;
18304;SDS011;9278;52.156;21.048;2022-07-25T07:05:28;5.22;;;3.30;;
18304;SDS011;9278;52.156;21.048;2022-07-25T07:07:59;5.82;;;3.30;;
18304;SDS011;9278;52.156;21.048;2022-07-25T07:10:27;6.18;;;3.10;;
18304;SDS011;9278;52.156;21.048;2022-07-25T07:13:02;5.78;;;3.45;;
18304;SDS011;9278;52.156;21.048;2022-07-25T07:15:33;5.25;;;3.10;;
18304;SDS011;9278;52.156;21.048;2022-07-25T07:18:01;5.90;;;3.08;;
18304;SDS011;9278;52.156;21.048;2022-07-25T07:20:31;4.40;;;3.00;;
18304;SDS011;9278;52.156;21.048;2022-07-25T07:22:59;3.53;;;2.83;;
18304;SDS011;9278;52.156;21.048;2022-07-25T07:25:31;4.95;;;3.25;;
18304;SDS011;9278;52.156;21.048;2022-07-25T07:28:00;5.35;;;3.15;;
18304;SDS011;9278;52.156;21.048;2022-07-25T07:30:28;5.63;;;3.20;;
18304;SDS011;9278;52.156;21.048;2022-07-25T07:33:16;4.97;;;3.20;;
18304;SDS011;9278;52.156;21.048;2022-07-25T07:35:46;4.35;;;3.05;;
18304;SDS011;9278;52.156;21.048;2022-07-25T07:38:14;6.03;;;2.88;;
18304;SDS011;9278;52.156;21.048;2022-07-25T07:40:43;5.10;;;3.17;;
18304;SDS011;9278;52.156;21.048;2022-07-25T07:43:11;4.50;;;2.90;;
18304;SDS011;9278;52.156;21.048;2022-07-25T07:45:39;4.35;;;3.00;;
18304;SDS011;9278;52.156;21.048;2022-07-25T07:48:09;4.18;;;3.00;;
18304;SDS011;9278;52.156;21.048;2022-07-25T07:50:37;3.60;;;3.03;;
18304;SDS011;9278;52.156;21.048;2022-07-25T07:53:07;3.90;;;2.72;;
18304;SDS011;9278;52.156;21.048;2022-07-25T07:55:35;4.80;;;2.50;;
18304;SDS011;9278;52.156;21.048;2022-07-25T07:58:12;8.23;;;2.90;;
18304;SDS011;9278;52.156;21.048;2022-07-25T08:00:42;6.97;;;3.05;;
18304;SDS011;9278;52.156;21.048;2022-07-25T08:03:10;7.93;;;2.97;;
18304;SDS011;9278;52.156;21.048;2022-07-25T08:05:39;5.78;;;2.90;;
18304;SDS011;9278;52.156;21.048;2022-07-25T08:08:12;4.93;;;3.15;;
18304;SDS011;9278;52.156;21.048;2022-07-25T08:10:42;5.15;;;2.95;;
18304;SDS011;9278;52.156;21.048;2022-07-25T08:13:11;7.20;;;3.03;;
18304;SDS011;9278;52.156;21.048;2022-07-25T08:15:40;5.68;;;3.00;;
18304;SDS011;9278;52.156;21.048;2022-07-25T08:18:10;5.95;;;2.80;;
18304;SDS011;9278;52.156;21.048;2022-07-25T08:20:43;7.45;;;2.90;;
18304;SDS011;9278;52.156;21.048;2022-07-25T08:23:13;4.07;;;3.00;;
18304;SDS011;9278;52.156;21.048;2022-07-25T08:25:41;5.28;;;3.33;;
18304;SDS011;9278;52.156;21.048;2022-07-25T08:28:10;5.43;;;3.30;;
18304;SDS011;9278;52.156;21.048;2022-07-25T08:30:39;20.02;;;3.53;;
18304;SDS011;9278;52.156;21.048;2022-07-25T08:33:10;4.30;;;3.42;;
18304;SDS011;9278;52.156;21.048;2022-07-25T08:35:44;4.80;;;3.45;;
18304;SDS011;9278;52.156;21.048;2022-07-25T08:38:15;4.82;;;2.88;;
18304;SDS011;9278;52.156;21.048;2022-07-25T08:40:43;5.57;;;3.35;;
18304;SDS011;9278;52.156;21.048;2022-07-25T08:43:12;5.70;;;3.40;;
18304;SDS011;9278;52.156;21.048;2022-07-25T08:45:43;5.82;;;3.03;;
18304;SDS011;9278;52.156;21.048;2022-07-25T08:48:12;7.13;;;3.47;;
18304;SDS011;9278;52.156;21.048;2022-07-25T08:50:42;5.35;;;2.95;;
18304;SDS011;9278;52.156;21.048;2022-07-25T08:53:12;6.28;;;2.67;;
18304;SDS011;9278;52.156;21.048;2022-07-25T08:56:00;5.20;;;3.00;;
18304;SDS011;9278;52.156;21.048;2022-07-25T08:58:36;5.70;;;2.80;;
18304;SDS011;9278;52.156;21.048;2022-07-25T09:01:05;4.35;;;3.00;;
18304;SDS011;9278;52.156;21.048;2022-07-25T09:03:34;5.28;;;2.83;;
18304;SDS011;9278;52.156;21.048;2022-07-25T09:06:11;4.97;;;2.90;;
18304;SDS011;9278;52.156;21.048;2022-07-25T09:08:50;6.40;;;3.35;;
18304;SDS011;9278;52.156;21.048;2022-07-25T09:11:28;5.20;;;3.05;;
18304;SDS011;9278;52.156;21.048;2022-07-25T09:14:01;5.93;;;3.22;;
18304;SDS011;9278;52.156;21.048;2022-07-25T09:16:32;6.90;;;3.67;;
18304;SDS011;9278;52.156;21.048;2022-07-25T09:19:06;5.40;;;3.03;;
18304;SDS011;9278;52.156;21.048;2022-07-25T09:21:36;4.50;;;2.85;;
18304;SDS011;9278;52.156;21.048;2022-07-25T09:24:12;23.48;;;5.75;;
18304;SDS011;9278;52.156;21.048;2022-07-25T09:26:44;25.65;;;6.40;;
18304;SDS011;9278;52.156;21.048;2022-07-25T09:29:15;51.85;;;10.27;;
18304;SDS011;9278;52.156;21.048;2022-07-25T09:31:44;8.73;;;3.85;;
18304;SDS011;9278;52.156;21.048;2022-07-25T09:34:15;7.28;;;3.50;;
18304;SDS011;9278;52.156;21.048;2022-07-25T09:36:51;11.73;;;3.90;;
18304;SDS011;9278;52.156;21.048;2022-07-25T09:39:19;9.43;;;3.30;;
18304;SDS011;9278;52.156;21.048;2022-07-25T09:41:49;4.97;;;2.85;;
18304;SDS011;9278;52.156;21.048;2022-07-25T09:44:17;6.18;;;3.03;;
18304;SDS011;9278;52.156;21.048;2022-07-25T09:46:48;6.00;;;2.97;;
18304;SDS011;9278;52.156;21.048;2022-07-25T09:49:17;3.45;;;2.80;;
18304;SDS011;9278;52.156;21.048;2022-07-25T09:51:45;10.48;;;3.15;;
18304;SDS011;9278;52.156;21.048;2022-07-25T09:54:14;4.75;;;3.08;;
18304;SDS011;9278;52.156;21.048;2022-07-25T09:56:43;4.63;;;3.20;;
18304;SDS011;9278;52.156;21.048;2022-07-25T09:59:13;4.97;;;2.90;;
18304;SDS011;9278;52.156;21.048;2022-07-25T10:01:44;3.20;;;2.90;;
18304;SDS011;9278;52.156;21.048;2022-07-25T10:04:20;6.80;;;3.58;;
18304;SDS011;9278;52.156;21.048;2022-07-25T10:06:51;5.32;;;3.10;;
18304;SDS011;9278;52.156;21.048;2022-07-25T10:09:30;6.13;;;3.15;;
18304;SDS011;9278;52.156;21.048;2022-07-25T10:12:02;7.28;;;3.20;;
18304;SDS011;9278;52.156;21.048;2022-07-25T10:14:32;4.03;;;2.80;;
18304;SDS011;9278;52.156;21.048;2022-07-25T10:17:01;4.25;;;3.10;;
18304;SDS011;9278;52.156;21.048;2022-07-25T10:19:39;5.30;;;3.05;;
18304;SDS011;9278;52.156;21.048;2022-07-25T10:22:16;3.72;;;2.95;;
18304;SDS011;9278;52.156;21.048;2022-07-25T10:25:11;3.85;;;3.17;;
18304;SDS011;9278;52.156;21.048;2022-07-25T10:27:42;4.97;;;3.10;;
18304;SDS011;9278;52.156;21.048;2022-07-25T10:30:22;3.67;;;3.20;;
18304;SDS011;9278;52.156;21.048;2022-07-25T10:32:55;4.35;;;2.88;;
18304;SDS011;9278;52.156;21.048;2022-07-25T10:35:25;3.60;;;2.90;;
18304;SDS011;9278;52.156;21.048;2022-07-25T10:37:54;4.60;;;3.13;;
18304;SDS011;9278;52.156;21.048;2022-07-25T10:40:25;3.67;;;3.10;;
18304;SDS011;9278;52.156;21.048;2022-07-25T10:42:56;6.95;;;3.00;;
18304;SDS011;9278;52.156;21.048;2022-07-25T10:45:34;5.30;;;3.05;;
18304;SDS011;9278;52.156;21.048;2022-07-25T10:48:06;5.07;;;2.80;;
18304;SDS011;9278;52.156;21.048;2022-07-25T10:50:45;4.00;;;3.20;;
18304;SDS011;9278;52.156;21.048;2022-07-25T10:53:32;5.00;;;2.78;;
18304;SDS011;9278;52.156;21.048;2022-07-25T10:56:02;4.60;;;3.00;;
18304;SDS011;9278;52.156;21.048;2022-07-25T10:58:45;3.88;;;2.90;;
18304;SDS011;9278;52.156;21.048;2022-07-25T11:01:19;5.28;;;2.97;;
18304;SDS011;9278;52.156;21.048;2022-07-25T11:03:50;4.93;;;2.95;;
18304;SDS011;9278;52.156;21.048;2022-07-25T11:06:30;6.38;;;2.80;;
18304;SDS011;9278;52.156;21.048;2022-07-25T11:09:00;4.15;;;3.00;;
18304;SDS011;9278;52.156;21.048;2022-07-25T11:11:36;5.82;;;3.10;;
18304;SDS011;9278;52.156;21.048;2022-07-25T11:14:13;5.07;;;3.03;;
18304;SDS011;9278;52.156;21.048;2022-07-25T11:16:44;4.38;;;2.95;;
18304;SDS011;9278;52.156;21.048;2022-07-25T11:19:17;5.88;;;3.00;;
18304;SDS011;9278;52.156;21.048;2022-07-25T11:21:46;4.45;;;3.00;;
18304;SDS011;9278;52.156;21.048;2022-07-25T11:24:16;3.88;;;3.03;;
18304;SDS011;9278;52.156;21.048;2022-07-25T11:26:47;5.35;;;3.50;;
18304;SDS011;9278;52.156;21.048;2022-07-25T11:29:17;6.30;;;3.20;;
18304;SDS011;9278;52.156;21.048;2022-07-25T11:31:55;5.55;;;2.80;;
18304;SDS011;9278;52.156;21.048;2022-07-25T11:34:25;4.30;;;2.92;;
18304;SDS011;9278;52.156;21.048;2022-07-25T11:36:55;2.92;;;2.55;;
18304;SDS011;9278;52.156;21.048;2022-07-25T11:39:25;7.43;;;2.60;;
18304;SDS011;9278;52.156;21.048;2022-07-25T11:41:57;3.50;;;2.80;;
18304;SDS011;9278;52.156;21.048;2022-07-25T11:44:30;3.50;;;2.83;;
18304;SDS011;9278;52.156;21.048;2022-07-25T11:47:01;3.20;;;2.80;;
18304;SDS011;9278;52.156;21.048;2022-07-25T11:49:30;3.13;;;2.38;;
18304;SDS011;9278;52.156;21.048;2022-07-25T11:51:58;3.55;;;2.70;;
18304;SDS011;9278;52.156;21.048;2022-07-25T11:54:26;5.65;;;2.90;;
18304;SDS011;9278;52.156;21.048;2022-07-25T11:56:54;3.67;;;2.60;;
18304;SDS011;9278;52.156;21.048;2022-07-25T11:59:22;5.10;;;2.80;;
18304;SDS011;9278;52.156;21.048;2022-07-25T12:01:51;3.75;;;2.58;;
18304;SDS011;9278;52.156;21.048;2022-07-25T12:04:21;4.40;;;2.63;;
18304;SDS011;9278;52.156;21.048;2022-07-25T12:06:49;2.83;;;2.63;;
18304;SDS011;9278;52.156;21.048;2022-07-25T12:09:17;4.70;;;2.60;;
18304;SDS011;9278;52.156;21.048;2022-07-25T12:11:47;3.25;;;2.60;;
18304;SDS011;9278;52.156;21.048;2022-07-25T12:14:16;5.20;;;2.80;;
18304;SDS011;9278;52.156;21.048;2022-07-25T12:16:44;5.03;;;2.83;;
18304;SDS011;9278;52.156;21.048;2022-07-25T12:19:20;2.65;;;2.38;;
18304;SDS011;9278;52.156;21.048;2022-07-25T12:21:50;2.97;;;2.67;;
18304;SDS011;9278;52.156;21.048;2022-07-25T12:24:18;4.15;;;2.20;;
18304;SDS011;9278;52.156;21.048;2022-07-25T12:26:46;4.85;;;2.70;;
18304;SDS011;9278;52.156;21.048;2022-07-25T12:29:14;5.10;;;2.58;;
18304;SDS011;9278;52.156;21.048;2022-07-25T12:31:42;3.25;;;2.53;;
18304;SDS011;9278;52.156;21.048;2022-07-25T12:34:11;2.50;;;2.20;;
18304;SDS011;9278;52.156;21.048;2022-07-25T12:36:40;3.03;;;2.47;;
18304;SDS011;9278;52.156;21.048;2022-07-25T12:39:10;3.38;;;2.70;;
18304;SDS011;9278;52.156;21.048;2022-07-25T12:41:38;4.57;;;2.35;;
18304;SDS011;9278;52.156;21.048;2022-07-25T12:44:08;2.90;;;2.10;;
18304;SDS011;9278;52.156;21.048;2022-07-25T12:46:36;2.47;;;2.10;;
18304;SDS011;9278;52.156;21.048;2022-07-25T12:49:14;4.53;;;2.55;;
18304;SDS011;9278;52.156;21.048;2022-07-25T12:51:44;2.90;;;2.42;;
18304;SDS011;9278;52.156;21.048;2022-07-25T12:54:12;4.68;;;2.65;;
18304;SDS011;9278;52.156;21.048;2022-07-25T12:56:47;3.90;;;2.60;;
18304;SDS011;9278;52.156;21.048;2022-07-25T12:59:16;3.22;;;2.38;;
18304;SDS011;9278;52.156;21.048;2022-07-25T13:01:44;3.92;;;2.58;;
18304;SDS011;9278;52.156;21.048;2022-07-25T13:04:12;3.00;;;2.17;;
18304;SDS011;9278;52.156;21.048;2022-07-25T13:06:40;3.80;;;2.50;;
18304;SDS011;9278;52.156;21.048;2022-07-25T13:09:10;4.43;;;2.50;;
18304;SDS011;9278;52.156;21.048;2022-07-25T13:11:38;5.00;;;2.72;;
18304;SDS011;9278;52.156;21.048;2022-07-25T13:14:07;4.22;;;3.25;;
18304;SDS011;9278;52.156;21.048;2022-07-25T13:16:35;4.45;;;3.10;;
18304;SDS011;9278;52.156;21.048;2022-07-25T13:19:04;5.95;;;2.70;;
18304;SDS011;9278;52.156;21.048;2022-07-25T13:21:34;4.40;;;2.60;;
18304;SDS011;9278;52.156;21.048;2022-07-25T13:24:02;3.88;;;2.38;;
18304;SDS011;9278;52.156;21.048;2022-07-25T13:26:32;6.72;;;2.47;;
18304;SDS011;9278;52.156;21.048;2022-07-25T13:29:01;6.20;;;2.90;;
18304;SDS011;9278;52.156;21.048;2022-07-25T13:31:35;4.88;;;2.85;;
18304;SDS011;9278;52.156;21.048;2022-07-25T13:34:04;5.38;;;3.10;;
18304;SDS011;9278;52.156;21.048;2022-07-25T13:36:32;5.90;;;2.53;;
18304;SDS011;9278;52.156;21.048;2022-07-25T13:39:01;3.95;;;2.60;;
18304;SDS011;9278;52.156;21.048;2022-07-25T13:41:32;4.85;;;2.60;;
18304;SDS011;9278;52.156;21.048;2022-07-25T13:44:00;3.28;;;2.60;;
18304;SDS011;9278;52.156;21.048;2022-07-25T13:46:28;9.07;;;2.75;;
18304;SDS011;9278;52.156;21.048;2022-07-25T13:48:57;2.70;;;2.42;;
18304;SDS011;9278;52.156;21.048;2022-07-25T13:51:25;3.80;;;2.50;;
18304;SDS011;9278;52.156;21.048;2022-07-25T13:53:53;4.03;;;2.67;;
18304;SDS011;9278;52.156;21.048;2022-07-25T13:56:22;3.63;;;2.50;;
18304;SDS011;9278;52.156;21.048;2022-07-25T13:58:51;2.90;;;2.42;;
18304;SDS011;9278;52.156;21.048;2022-07-25T14:01:19;3.65;;;2.50;;
18304;SDS011;9278;52.156;21.048;2022-07-25T14:03:48;2.97;;;2.40;;
18304;SDS011;9278;52.156;21.048;2022-07-25T14:06:16;5.82;;;2.60;;
18304;SDS011;9278;52.156;21.048;2022-07-25T14:08:44;4.55;;;2.58;;
18304;SDS011;9278;52.156;21.048;2022-07-25T14:11:13;3.33;;;2.42;;
18304;SDS011;9278;52.156;21.048;2022-07-25T14:13:41;6.78;;;2.97;;
18304;SDS011;9278;52.156;21.048;2022-07-25T14:16:12;4.55;;;2.55;;
18304;SDS011;9278;52.156;21.048;2022-07-25T14:18:42;4.47;;;2.47;;
18304;SDS011;9278;52.156;21.048;2022-07-25T14:21:10;7.75;;;4.53;;
18304;SDS011;9278;52.156;21.048;2022-07-25T14:23:39;6.50;;;3.50;;
18304;SDS011;9278;52.156;21.048;2022-07-25T14:26:07;4.60;;;2.50;;
18304;SDS011;9278;52.156;21.048;2022-07-25T14:28:35;5.57;;;2.60;;
18304;SDS011;9278;52.156;21.048;2022-07-25T14:31:03;7.38;;;3.33;;
18304;SDS011;9278;52.156;21.048;2022-07-25T14:33:33;3.97;;;2.30;;
18304;SDS011;9278;52.156;21.048;2022-07-25T14:36:05;3.05;;;2.40;;
18304;SDS011;9278;52.156;21.048;2022-07-25T14:38:33;5.03;;;2.63;;
18304;SDS011;9278;52.156;21.048;2022-07-25T14:41:03;3.45;;;2.50;;
18304;SDS011;9278;52.156;21.048;2022-07-25T14:43:38;4.57;;;2.35;;
18304;SDS011;9278;52.156;21.048;2022-07-25T14:46:06;3.55;;;2.50;;
18304;SDS011;9278;52.156;21.048;2022-07-25T14:48:36;6.15;;;2.30;;
18304;SDS011;9278;52.156;21.048;2022-07-25T14:51:05;6.32;;;2.25;;
18304;SDS011;9278;52.156;21.048;2022-07-25T14:53:33;4.38;;;2.28;;
18304;SDS011;9278;52.156;21.048;2022-07-25T14:56:03;3.38;;;2.50;;
18304;SDS011;9278;52.156;21.048;2022-07-25T14:58:32;7.07;;;2.88;;